createdAt,value
2023-02-08T00:00:54.970Z,39.60
2023-02-08T00:03:21.863Z,39.55
2023-02-08T00:05:48.924Z,39.32
2023-02-08T00:08:16.064Z,38.82
2023-02-08T00:10:43.879Z,39.81
2023-02-08T00:13:10.844Z,39.78
2023-02-08T00:15:45.121Z,39.69
2023-02-08T00:18:12.548Z,39.56
2023-02-08T00:20:41.197Z,39.49
2023-02-08T00:23:08.047Z,39.42
2023-02-08T00:25:35.080Z,39.59
2023-02-08T00:28:04.002Z,39.58
2023-02-08T00:30:31.626Z,39.49
2023-02-08T00:32:58.369Z,39.59
2023-02-08T00:35:25.207Z,39.76
2023-02-08T00:37:51.871Z,39.58
2023-02-08T00:40:18.678Z,39.67
2023-02-08T00:42:45.446Z,39.42
2023-02-08T00:45:12.160Z,39.75
2023-02-08T00:47:38.830Z,39.43
2023-02-08T00:50:06.046Z,39.42
2023-02-08T00:52:32.764Z,39.63
2023-02-08T00:54:59.425Z,39.65
2023-02-08T00:57:26.131Z,39.84
2023-02-08T00:59:52.847Z,39.37
2023-02-08T01:02:19.590Z,39.42
2023-02-08T01:04:46.257Z,39.84
2023-02-08T01:07:13.655Z,39.61
2023-02-08T01:09:40.945Z,39.57
2023-02-08T01:12:07.643Z,39.64
2023-02-08T01:14:34.385Z,39.58
2023-02-08T01:17:01.038Z,39.75
2023-02-08T01:19:27.759Z,39.20
2023-02-08T01:21:55.132Z,39.30
2023-02-08T01:24:22.465Z,39.65
2023-02-08T01:26:49.102Z,39.24
2023-02-08T01:29:15.906Z,39.27
2023-02-08T01:31:44.209Z,39.75
2023-02-08T01:34:11.947Z,39.72
2023-02-08T01:36:39.400Z,39.63
2023-02-08T01:39:07.504Z,39.52
2023-02-08T01:41:37.944Z,39.44
2023-02-08T01:44:13.773Z,39.16
2023-02-08T01:46:45.985Z,39.74
2023-02-08T01:49:28.967Z,39.26
2023-02-08T01:52:13.887Z,39.37
2023-02-08T01:54:49.190Z,39.21
2023-02-08T01:57:16.465Z,39.24
2023-02-08T01:59:47.913Z,39.60
2023-02-08T02:02:17.570Z,39.36
2023-02-08T02:04:44.444Z,39.86
2023-02-08T02:07:12.872Z,39.56
2023-02-08T02:09:51.372Z,39.85
2023-02-08T02:12:18.369Z,39.80
2023-02-08T02:14:45.726Z,39.10
2023-02-08T02:17:15.295Z,39.81
2023-02-08T02:20:14.441Z,39.16
2023-02-08T02:23:02.553Z,39.28
2023-02-08T02:26:00.277Z,39.57
2023-02-08T02:28:32.936Z,39.64
2023-02-08T02:31:44.736Z,39.59
2023-02-08T02:34:46.762Z,39.88
2023-02-08T02:37:34.853Z,39.23
2023-02-08T02:40:16.635Z,39.72
2023-02-08T02:43:18.536Z,39.39
2023-02-08T02:46:07.711Z,39.30
2023-02-08T02:48:59.104Z,39.19
2023-02-08T02:51:33.074Z,39.86
2023-02-08T02:54:07.110Z,39.35
2023-02-08T02:56:44.751Z,39.32
2023-02-08T02:59:13.557Z,39.98
2023-02-08T03:01:42.775Z,39.38
2023-02-08T03:04:19.384Z,39.48
2023-02-08T03:07:15.084Z,39.58
2023-02-08T03:10:19.848Z,39.67
2023-02-08T03:13:03.110Z,39.59
2023-02-08T03:15:35.487Z,39.61
2023-02-08T03:18:30.619Z,39.74
2023-02-08T03:21:12.467Z,39.34
2023-02-08T03:23:52.339Z,39.68
2023-02-08T03:26:31.631Z,39.62
2023-02-08T03:29:11.662Z,39.65
2023-02-08T03:31:45.604Z,39.68
2023-02-08T03:34:33.440Z,39.30
2023-02-08T03:37:21.583Z,39.62
2023-02-08T03:39:52.052Z,39.49
2023-02-08T03:42:25.123Z,39.69
2023-02-08T03:44:57.189Z,39.58
2023-02-08T03:47:28.589Z,39.92
2023-02-08T03:50:00.198Z,39.73
2023-02-08T03:52:30.313Z,39.80
2023-02-08T03:55:05.512Z,39.63
2023-02-08T03:57:38.583Z,39.79
2023-02-08T04:00:12.555Z,39.29
2023-02-08T04:03:04.685Z,39.57
2023-02-08T04:05:31.722Z,39.93
2023-02-08T04:07:58.421Z,39.72
2023-02-08T04:10:25.120Z,39.79
2023-02-08T04:12:51.870Z,39.35
2023-02-08T04:15:18.665Z,39.99
2023-02-08T04:17:45.395Z,39.62
2023-02-08T04:20:12.522Z,39.47
2023-02-08T04:22:39.777Z,39.91
2023-02-08T04:25:06.780Z,39.62
2023-02-08T04:27:33.642Z,39.12
2023-02-08T04:30:00.283Z,39.30
2023-02-08T04:32:26.984Z,39.78
2023-02-08T04:34:53.714Z,39.43
2023-02-08T04:37:20.430Z,39.85
2023-02-08T04:39:47.128Z,39.86
2023-02-08T04:42:14.995Z,39.20
2023-02-08T04:44:41.801Z,39.91
2023-02-08T04:47:08.519Z,39.64
2023-02-08T04:49:35.199Z,39.33
2023-02-08T04:52:01.912Z,39.51
2023-02-08T04:54:28.646Z,39.79
2023-02-08T04:56:55.522Z,39.66
2023-02-08T04:59:22.212Z,39.42
2023-02-08T05:01:48.859Z,39.77
2023-02-08T05:04:15.478Z,39.61
2023-02-08T05:06:42.224Z,39.38
2023-02-08T05:09:10.077Z,39.40
2023-02-08T05:11:37.510Z,39.42
2023-02-08T05:14:04.822Z,39.67
2023-02-08T05:16:31.818Z,39.52
2023-02-08T05:18:58.673Z,39.11
2023-02-08T05:21:25.312Z,39.37
2023-02-08T05:23:52.730Z,39.50
2023-02-08T05:26:23.001Z,39.64
2023-02-08T05:28:49.840Z,39.28
2023-02-08T05:31:20.756Z,39.40
2023-02-08T05:33:48.986Z,39.69
2023-02-08T05:36:16.599Z,38.99
2023-02-08T05:38:43.628Z,39.48
2023-02-08T05:41:10.336Z,39.20
2023-02-08T05:43:37.330Z,39.39
2023-02-08T05:46:04.380Z,38.96
2023-02-08T05:48:32.114Z,39.02
2023-02-08T05:50:59.591Z,38.99
2023-02-08T05:53:26.507Z,39.05
2023-02-08T05:55:53.750Z,39.15
2023-02-08T05:58:20.445Z,39.31
2023-02-08T06:00:47.309Z,39.28
2023-02-08T06:03:14.085Z,38.91
2023-02-08T06:05:41.257Z,39.59
2023-02-08T06:08:08.337Z,39.13
2023-02-08T06:10:35.814Z,39.23
2023-02-08T06:13:03.550Z,39.00
2023-02-08T06:15:30.538Z,39.28
2023-02-08T06:17:57.228Z,39.24
2023-02-08T06:20:24.220Z,39.03
2023-02-08T06:22:51.056Z,39.34
2023-02-08T06:25:17.837Z,39.50
2023-02-08T06:27:45.265Z,39.12
2023-02-08T06:30:12.713Z,39.52
2023-02-08T06:32:39.520Z,39.59
2023-02-08T06:35:06.578Z,39.57
2023-02-08T06:37:33.235Z,38.99
2023-02-08T06:40:02.076Z,39.43
2023-02-08T06:42:28.895Z,39.41
2023-02-08T06:44:56.113Z,38.99
2023-02-08T06:47:23.893Z,39.24
2023-02-08T06:49:51.126Z,38.99
2023-02-08T06:52:18.179Z,39.29
2023-02-08T06:54:44.945Z,39.03
2023-02-08T06:57:13.055Z,38.83
2023-02-08T06:59:40.669Z,39.47
2023-02-08T07:02:12.879Z,39.23
2023-02-08T07:04:39.693Z,39.21
2023-02-08T07:07:06.492Z,39.17
2023-02-08T07:09:34.812Z,39.60
2023-02-08T07:12:05.212Z,38.89
2023-02-08T07:14:36.722Z,38.90
2023-02-08T07:17:03.782Z,39.58
2023-02-08T07:19:30.929Z,39.50
2023-02-08T07:22:03.245Z,38.71
2023-02-08T07:24:30.580Z,38.74
2023-02-08T07:26:57.245Z,39.01
2023-02-08T07:29:24.270Z,39.06
2023-02-08T07:31:50.946Z,39.32
2023-02-08T07:34:21.947Z,38.86
2023-02-08T07:36:49.508Z,39.35
2023-02-08T07:39:16.261Z,38.64
2023-02-08T07:41:43.141Z,39.28
2023-02-08T07:44:09.816Z,38.88
2023-02-08T07:46:36.476Z,38.81
2023-02-08T07:49:03.188Z,38.82
2023-02-08T07:51:30.059Z,38.60
2023-02-08T07:53:56.837Z,38.77
2023-02-08T07:56:23.565Z,38.63
2023-02-08T07:58:50.258Z,39.12
2023-02-08T08:01:22.243Z,38.52
2023-02-08T08:03:51.931Z,38.25
2023-02-08T08:06:22.902Z,38.37
2023-02-08T08:08:50.068Z,38.35
2023-02-08T08:11:18.723Z,38.53
2023-02-08T08:13:45.958Z,38.44
2023-02-08T08:16:13.208Z,38.63
2023-02-08T08:18:39.953Z,38.57
2023-02-08T08:21:07.323Z,38.81
2023-02-08T08:23:35.781Z,38.31
2023-02-08T08:26:13.968Z,38.20
2023-02-08T08:28:41.516Z,38.59
2023-02-08T08:31:17.463Z,38.29
2023-02-08T08:33:44.698Z,37.83
2023-02-08T08:36:11.556Z,38.44
2023-02-08T08:38:41.924Z,38.31
2023-02-08T08:41:11.979Z,38.50
2023-02-08T08:43:38.675Z,37.82
2023-02-08T08:46:06.974Z,38.39
2023-02-08T08:48:35.411Z,37.95
2023-02-08T08:51:04.107Z,38.14
2023-02-08T08:53:30.755Z,37.96
2023-02-08T08:55:57.883Z,37.80
2023-02-08T08:58:24.554Z,38.04
2023-02-08T09:00:51.269Z,38.25
2023-02-08T09:03:17.991Z,38.12
2023-02-08T09:05:44.607Z,38.30
2023-02-08T09:08:11.346Z,37.56
2023-02-08T09:10:37.983Z,38.16
2023-02-08T09:13:04.730Z,37.95
2023-02-08T09:15:31.386Z,37.51
2023-02-08T09:17:58.078Z,38.03
2023-02-08T09:20:24.963Z,37.87
2023-02-08T09:22:53.381Z,37.55
2023-02-08T09:25:20.084Z,38.38
2023-02-08T09:27:46.757Z,37.99
2023-02-08T09:30:13.789Z,37.84
2023-02-08T09:32:40.548Z,37.63
2023-02-08T09:35:08.292Z,37.78
2023-02-08T09:37:35.269Z,37.66
2023-02-08T09:40:02.281Z,37.72
2023-02-08T09:42:42.045Z,37.36
2023-02-08T09:45:26.449Z,37.44
2023-02-08T09:48:13.964Z,37.54
2023-02-08T09:50:49.464Z,37.28
2023-02-08T09:53:28.483Z,37.71
2023-02-08T09:56:06.557Z,37.43
2023-02-08T09:58:33.157Z,37.32
2023-02-08T10:01:00.825Z,37.20
2023-02-08T10:03:37.179Z,37.41
2023-02-08T10:06:10.527Z,37.33
2023-02-08T10:08:38.153Z,37.08
2023-02-08T10:11:31.875Z,37.30
2023-02-08T10:14:09.754Z,37.05
2023-02-08T10:16:59.589Z,37.23
2023-02-08T10:19:54.946Z,37.51
2023-02-08T10:22:34.105Z,37.27
2023-02-08T10:25:19.377Z,37.01
2023-02-08T10:28:06.116Z,37.28
2023-02-08T10:31:03.648Z,37.02
2023-02-08T10:33:40.725Z,36.95
2023-02-08T10:36:21.240Z,37.28
2023-02-08T10:38:51.888Z,36.70
2023-02-08T10:41:23.643Z,36.66
2023-02-08T10:44:06.190Z,36.39
2023-02-08T10:46:44.319Z,36.79
2023-02-08T10:49:35.253Z,36.54
2023-02-08T10:52:06.307Z,36.78
2023-02-08T10:54:35.408Z,36.32
2023-02-08T10:57:09.177Z,36.75
2023-02-08T10:59:46.565Z,36.03
2023-02-08T11:02:26.825Z,36.59
2023-02-08T11:05:17.399Z,36.13
2023-02-08T11:07:44.747Z,36.45
2023-02-08T11:10:32.201Z,36.24
2023-02-08T11:13:07.011Z,36.38
2023-02-08T11:15:40.221Z,36.45
2023-02-08T11:18:15.869Z,36.28
2023-02-08T11:20:49.216Z,35.88
2023-02-08T11:23:20.350Z,36.48
2023-02-08T11:25:50.757Z,36.63
2023-02-08T11:28:31.182Z,36.53
2023-02-08T11:31:02.026Z,36.26
2023-02-08T11:33:32.693Z,36.58
2023-02-08T11:36:13.324Z,36.29
2023-02-08T11:38:42.976Z,36.53
2023-02-08T11:41:20.460Z,36.50
2023-02-08T11:43:59.644Z,36.42
2023-02-08T11:46:28.783Z,36.21
2023-02-08T11:48:56.632Z,36.06
2023-02-08T11:51:28.285Z,35.89
2023-02-08T11:53:55.451Z,36.31
2023-02-08T11:56:28.144Z,36.25
2023-02-08T11:59:17.521Z,36.01
2023-02-08T12:01:44.937Z,36.08
2023-02-08T12:04:14.704Z,35.72
2023-02-08T12:06:51.124Z,35.71
2023-02-08T12:09:41.630Z,35.62
2023-02-08T12:12:12.936Z,35.81
2023-02-08T12:14:54.905Z,35.96
2023-02-08T12:18:00.173Z,36.16
2023-02-08T12:20:36.969Z,35.68
2023-02-08T12:23:12.830Z,35.60
2023-02-08T12:26:05.116Z,35.61
2023-02-08T12:29:03.143Z,36.30
2023-02-08T12:32:12.794Z,36.22
2023-02-08T12:34:57.709Z,36.18
2023-02-08T12:37:46.676Z,35.97
2023-02-08T12:40:50.722Z,36.56
2023-02-08T12:43:32.784Z,36.25
2023-02-08T12:45:59.578Z,35.96
2023-02-08T12:48:58.733Z,35.98
2023-02-08T12:51:48.268Z,36.65
2023-02-08T12:54:31.995Z,36.29
2023-02-08T12:57:02.868Z,36.51
2023-02-08T12:59:38.627Z,36.18
2023-02-08T13:02:20.871Z,36.59
2023-02-08T13:04:52.365Z,36.53
2023-02-08T13:07:38.747Z,36.79
2023-02-08T13:10:05.658Z,37.09
2023-02-08T13:12:49.769Z,36.44
2023-02-08T13:15:30.978Z,36.63
2023-02-08T13:18:01.630Z,37.16
2023-02-08T13:20:43.647Z,36.79
2023-02-08T13:23:34.770Z,36.88
2023-02-08T13:26:15.678Z,37.20
2023-02-08T13:28:48.988Z,36.85
2023-02-08T13:31:21.125Z,36.45
2023-02-08T13:34:01.903Z,37.12
2023-02-08T13:36:37.379Z,37.01
2023-02-08T13:39:08.250Z,36.84
2023-02-08T13:41:36.422Z,37.24
2023-02-08T13:44:20.019Z,36.94
2023-02-08T13:46:51.479Z,37.38
2023-02-08T13:49:53.287Z,36.86
2023-02-08T13:52:47.612Z,37.34
2023-02-08T13:55:31.210Z,36.70
2023-02-08T13:58:15.662Z,36.63
2023-02-08T14:00:57.759Z,37.29
2023-02-08T14:03:28.221Z,36.86
2023-02-08T14:06:06.159Z,36.91
2023-02-08T14:08:54.231Z,37.10
2023-02-08T14:11:45.694Z,37.11
2023-02-08T14:14:17.744Z,37.10
2023-02-08T14:16:46.567Z,36.30
2023-02-08T14:19:15.999Z,37.00
2023-02-08T14:21:50.353Z,36.81
2023-02-08T14:24:49.807Z,37.05
2023-02-08T14:27:26.490Z,36.96
2023-02-08T14:30:05.728Z,36.48
2023-02-08T14:32:37.498Z,36.97
2023-02-08T14:35:19.330Z,36.62
2023-02-08T14:37:52.202Z,36.32
2023-02-08T14:40:23.625Z,36.98
2023-02-08T14:43:00.882Z,36.28
2023-02-08T14:45:46.169Z,36.93
2023-02-08T14:48:44.142Z,37.00
2023-02-08T14:51:10.957Z,36.50
2023-02-08T14:53:55.282Z,36.53
2023-02-08T14:56:32.573Z,36.88
2023-02-08T14:59:11.568Z,36.12
2023-02-08T15:01:48.782Z,36.28
2023-02-08T15:04:21.519Z,36.38
2023-02-08T15:07:11.942Z,36.48
2023-02-08T15:10:02.212Z,36.96
2023-02-08T15:12:40.433Z,36.83
2023-02-08T15:15:25.282Z,36.76
2023-02-08T15:17:56.523Z,36.29
2023-02-08T15:20:34.819Z,36.87
2023-02-08T15:23:25.458Z,36.62
2023-02-08T15:26:28.026Z,37.01
2023-02-08T15:29:06.516Z,36.59
2023-02-08T15:31:37.224Z,36.48
2023-02-08T15:34:19.676Z,37.05
2023-02-08T15:36:59.732Z,36.29
2023-02-08T15:39:40.086Z,36.66
2023-02-08T15:42:17.781Z,36.36
2023-02-08T15:44:45.646Z,36.81
2023-02-08T15:47:36.114Z,36.66
2023-02-08T15:50:15.629Z,36.80
2023-02-08T15:52:43.988Z,36.51
2023-02-08T15:55:17.356Z,36.86
2023-02-08T15:57:47.189Z,36.80
2023-02-08T16:00:19.353Z,37.38
2023-02-08T16:02:53.459Z,37.43
2023-02-08T16:05:25.551Z,37.47
2023-02-08T16:07:55.764Z,37.42
2023-02-08T16:10:22.570Z,37.11
2023-02-08T16:12:54.310Z,37.43
2023-02-08T16:15:34.307Z,37.51
2023-02-08T16:18:01.241Z,37.77
2023-02-08T16:20:33.792Z,37.12
2023-02-08T16:23:20.382Z,37.07
2023-02-08T16:25:50.446Z,37.90
2023-02-08T16:28:29.288Z,37.42
2023-02-08T16:30:59.227Z,37.63
2023-02-08T16:33:27.113Z,38.01
2023-02-08T16:36:01.829Z,37.12
2023-02-08T16:39:07.321Z,39.30
2023-02-08T16:42:06.460Z,37.30
2023-02-08T16:44:59.319Z,38.79
2023-02-08T16:47:46.510Z,37.94
2023-02-08T16:50:28.217Z,37.71
2023-02-08T16:53:00.474Z,37.80
2023-02-08T16:55:40.635Z,38.04
2023-02-08T17:02:13.749Z,37.53
2023-02-08T17:15:28.069Z,37.75
2023-02-08T17:18:54.901Z,38.10
2023-02-08T17:25:59.915Z,38.27
2023-02-08T17:33:10.684Z,37.96
2023-02-08T17:40:59.538Z,38.32
2023-02-08T17:48:13.949Z,38.07
2023-02-08T17:55:30.647Z,38.23
2023-02-08T17:59:16.036Z,38.03
2023-02-08T18:01:45.917Z,38.49
2023-02-08T18:22:14.445Z,38.45
2023-02-08T18:28:30.387Z,38.38
2023-02-08T18:35:11.901Z,38.39
2023-02-08T18:45:16.658Z,38.17
2023-02-08T18:52:35.142Z,38.27
2023-02-08T19:02:42.848Z,38.33
2023-02-08T19:10:06.154Z,37.87
2023-02-08T19:17:56.066Z,38.27
2023-02-08T19:19:37.169Z,38.38
2023-02-08T19:22:07.894Z,38.41
2023-02-08T19:28:41.600Z,38.12
2023-02-08T19:31:12.624Z,38.10
2023-02-08T19:37:53.086Z,38.23
2023-02-08T20:12:17.517Z,38.59
2023-02-08T20:45:00.315Z,38.03
2023-02-08T20:48:05.386Z,38.42
2023-02-08T20:50:45.060Z,38.71
2023-02-08T20:51:45.202Z,37.89
2023-02-08T20:53:14.129Z,41.32
2023-02-08T20:55:41.841Z,38.99
2023-02-08T20:58:09.079Z,38.86
2023-02-08T21:00:42.168Z,38.26
2023-02-08T21:03:28.131Z,38.32
2023-02-08T21:06:21.765Z,37.71
2023-02-08T21:08:51.879Z,38.40
2023-02-08T21:11:20.476Z,37.64
2023-02-08T21:13:47.746Z,38.06
2023-02-08T21:16:16.061Z,37.77
2023-02-08T21:18:46.006Z,38.25
2023-02-08T21:21:13.390Z,38.02
2023-02-08T21:23:47.037Z,37.63
2023-02-08T21:26:17.444Z,37.96
2023-02-08T21:28:44.975Z,37.80
2023-02-08T21:31:17.774Z,38.35
2023-02-08T21:33:45.609Z,37.72
2023-02-08T21:36:19.014Z,38.08
2023-02-08T21:38:46.661Z,38.40
2023-02-08T21:41:16.812Z,38.54
2023-02-08T21:43:43.742Z,37.67
2023-02-08T21:46:11.020Z,37.58
2023-02-08T21:48:57.311Z,37.86
2023-02-08T21:51:43.858Z,38.04
2023-02-08T21:54:37.990Z,37.90
2023-02-08T21:57:07.081Z,37.76
2023-02-08T21:59:37.032Z,38.14
2023-02-08T22:02:08.231Z,38.01
2023-02-08T22:04:36.323Z,38.24
2023-02-08T22:07:04.762Z,37.72
2023-02-08T22:09:31.588Z,38.36
2023-02-08T22:11:58.953Z,38.42
2023-02-08T22:14:25.961Z,38.22
2023-02-08T22:16:55.312Z,38.13
2023-02-08T22:19:22.194Z,38.28
2023-02-08T22:21:48.931Z,38.37
2023-02-08T22:24:15.588Z,38.40
2023-02-08T22:26:43.989Z,38.11
2023-02-08T22:29:10.785Z,37.69
2023-02-08T22:31:37.666Z,38.50
2023-02-08T22:34:04.467Z,38.23
2023-02-08T22:36:31.694Z,38.04
2023-02-08T22:38:58.362Z,38.01
2023-02-08T22:41:25.072Z,38.11
2023-02-08T22:43:51.942Z,38.08
2023-02-08T22:46:18.611Z,37.84
2023-02-08T22:48:45.361Z,38.12
2023-02-08T22:51:17.316Z,37.75
2023-02-08T22:53:45.107Z,37.81
2023-02-08T22:56:15.062Z,38.48
2023-02-08T22:58:42.027Z,38.02
2023-02-08T23:01:13.393Z,37.77
2023-02-08T23:03:40.247Z,38.16
2023-02-08T23:06:09.529Z,38.48
2023-02-08T23:08:36.964Z,38.13
2023-02-08T23:11:05.620Z,38.38
2023-02-08T23:13:33.236Z,38.33
2023-02-08T23:16:00.073Z,37.94
2023-02-08T23:18:26.850Z,37.87
2023-02-08T23:20:54.713Z,38.15
2023-02-08T23:23:21.583Z,38.49
2023-02-08T23:25:48.774Z,38.11
2023-02-08T23:28:15.838Z,38.18
2023-02-08T23:30:43.956Z,38.31
2023-02-08T23:33:10.829Z,38.00
2023-02-08T23:35:41.355Z,37.91
2023-02-08T23:38:09.460Z,38.67
2023-02-08T23:40:36.181Z,38.14
2023-02-08T23:43:02.948Z,38.30
2023-02-08T23:45:29.756Z,38.32
2023-02-08T23:47:56.388Z,38.25
2023-02-08T23:50:23.103Z,37.93
2023-02-08T23:52:49.794Z,37.90
2023-02-08T23:55:16.543Z,37.99
2023-02-08T23:57:43.146Z,38.26
